createdAt,value
2023-03-25T00:01:18.393Z,100671.16
2023-03-25T00:03:51.113Z,100670.56
2023-03-25T00:06:19.671Z,100668.44
2023-03-25T00:08:52.087Z,100661.97
2023-03-25T00:11:20.369Z,100668.34
2023-03-25T00:13:48.473Z,100669.28
2023-03-25T00:16:25.848Z,100666.25
2023-03-25T00:18:54.085Z,100667.53
2023-03-25T00:21:23.478Z,100663.44
2023-03-25T00:23:51.216Z,100665.16
2023-03-25T00:26:18.871Z,100662.75
2023-03-25T00:28:46.561Z,100664.44
2023-03-25T00:31:16.079Z,100663.16
2023-03-25T00:33:43.830Z,100659.00
2023-03-25T00:36:18.137Z,100665.81
2023-03-25T00:38:49.081Z,100666.66
2023-03-25T00:41:27.838Z,100663.91
2023-03-25T00:43:57.248Z,100668.34
2023-03-25T00:46:27.554Z,100671.19
2023-03-25T00:48:58.397Z,100658.63
2023-03-25T00:51:31.295Z,100658.72
2023-03-25T00:54:00.771Z,100661.88
2023-03-25T00:56:30.471Z,100665.72
2023-03-25T00:58:58.569Z,100665.88
2023-03-25T01:01:29.375Z,100672.63
2023-03-25T01:04:00.773Z,100668.28
2023-03-25T01:06:38.853Z,100664.13
2023-03-25T01:09:09.789Z,100664.19
2023-03-25T01:11:38.631Z,100659.94
2023-03-25T01:14:09.479Z,100656.44
2023-03-25T01:16:39.040Z,100660.00
2023-03-25T01:19:06.702Z,100658.38
2023-03-25T01:21:36.294Z,100655.34
2023-03-25T01:24:05.250Z,100659.53
2023-03-25T01:26:32.807Z,100668.63
2023-03-25T01:29:00.699Z,100662.66
2023-03-25T01:31:30.469Z,100660.00
2023-03-25T01:33:59.541Z,100660.63
2023-03-25T01:36:29.751Z,100663.88
2023-03-25T01:39:01.513Z,100659.38
2023-03-25T01:41:39.061Z,100663.03
2023-03-25T01:44:19.979Z,100664.75
2023-03-25T01:46:49.530Z,100662.09
2023-03-25T01:49:23.749Z,100659.38
2023-03-25T01:51:56.920Z,100659.69
2023-03-25T01:54:24.720Z,100654.19
2023-03-25T01:56:54.216Z,100660.22
2023-03-25T01:59:24.972Z,100658.22
2023-03-25T02:01:55.736Z,100664.34
2023-03-25T02:04:40.567Z,100657.91
2023-03-25T02:07:10.332Z,100657.22
2023-03-25T02:09:41.113Z,100656.50
2023-03-25T02:12:09.022Z,100656.78
2023-03-25T02:14:39.314Z,100655.66
2023-03-25T02:17:22.225Z,100649.38
2023-03-25T02:20:13.882Z,100649.03
2023-03-25T02:23:22.223Z,100649.50
2023-03-25T02:25:50.181Z,100643.31
2023-03-25T02:28:36.556Z,100630.50
2023-03-25T02:31:22.733Z,100637.44
2023-03-25T02:34:14.269Z,100628.88
2023-03-25T02:37:10.946Z,100629.81
2023-03-25T02:39:52.654Z,100620.16
2023-03-25T02:42:24.227Z,100617.22
2023-03-25T02:45:31.267Z,100618.97
2023-03-25T02:48:04.594Z,100608.78
2023-03-25T02:50:36.155Z,100604.13
2023-03-25T02:53:08.929Z,100604.06
2023-03-25T02:55:41.612Z,100610.94
2023-03-25T02:58:12.392Z,100605.66
2023-03-25T03:00:40.863Z,100597.38
2023-03-25T03:03:11.084Z,100603.44
2023-03-25T03:05:43.981Z,100609.56
2023-03-25T03:08:49.681Z,100605.94
2023-03-25T03:11:35.859Z,100600.69
2023-03-25T03:14:09.914Z,100606.69
2023-03-25T03:17:00.798Z,100609.63
2023-03-25T03:19:53.362Z,100612.44
2023-03-25T03:22:38.719Z,100611.66
2023-03-25T03:25:30.504Z,100627.47
2023-03-25T03:28:24.859Z,100621.63
2023-03-25T03:30:58.673Z,100615.81
2023-03-25T03:33:53.441Z,100623.81
2023-03-25T03:36:26.632Z,100615.19
2023-03-25T03:39:01.367Z,100619.25
2023-03-25T03:41:30.586Z,100616.69
2023-03-25T03:44:03.251Z,100617.72
2023-03-25T03:46:50.367Z,100629.09
2023-03-25T03:49:24.568Z,100630.53
2023-03-25T03:52:13.857Z,100629.09
2023-03-25T03:54:57.264Z,100629.31
2023-03-25T03:57:41.547Z,100632.81
2023-03-25T04:00:21.273Z,100631.94
2023-03-25T04:02:59.010Z,100633.88
2023-03-25T04:05:30.989Z,100642.22
2023-03-25T04:08:12.034Z,100645.75
2023-03-25T04:10:52.809Z,100636.88
2023-03-25T04:13:22.249Z,100633.44
2023-03-25T04:15:50.752Z,100642.91
2023-03-25T04:18:23.426Z,100650.19
2023-03-25T04:20:50.985Z,100655.97
2023-03-25T04:23:22.720Z,100650.63
2023-03-25T04:25:53.562Z,100651.84
2023-03-25T04:28:27.449Z,100653.03
2023-03-25T04:30:57.215Z,100656.53
2023-03-25T04:33:25.510Z,100648.47
2023-03-25T04:35:56.602Z,100643.34
2023-03-25T04:38:24.526Z,100639.38
2023-03-25T04:40:52.446Z,100648.56
2023-03-25T04:43:21.071Z,100655.09
2023-03-25T04:45:55.259Z,100661.94
2023-03-25T04:48:30.213Z,100666.84
2023-03-25T04:50:59.992Z,100659.41
2023-03-25T04:53:32.441Z,100659.41
2023-03-25T04:56:00.443Z,100665.72
2023-03-25T04:58:28.960Z,100663.22
2023-03-25T05:01:06.172Z,100662.56
2023-03-25T05:03:35.374Z,100668.78
2023-03-25T05:06:03.224Z,100662.81
2023-03-25T05:08:31.825Z,100663.91
2023-03-25T05:10:59.487Z,100663.94
2023-03-25T05:13:31.629Z,100671.00
2023-03-25T05:15:59.768Z,100660.72
2023-03-25T05:18:27.416Z,100660.53
2023-03-25T05:20:56.877Z,100659.09
2023-03-25T05:23:25.601Z,100663.19
2023-03-25T05:25:53.588Z,100666.75
2023-03-25T05:28:21.467Z,100665.72
2023-03-25T05:30:49.059Z,100677.53
2023-03-25T05:33:22.387Z,100666.06
2023-03-25T05:35:50.912Z,100673.78
2023-03-25T05:38:19.152Z,100668.50
2023-03-25T05:40:47.781Z,100677.25
2023-03-25T05:43:25.312Z,100663.16
2023-03-25T05:45:56.161Z,100662.25
2023-03-25T05:48:23.746Z,100667.44
2023-03-25T05:50:51.306Z,100671.72
2023-03-25T05:53:20.773Z,100674.81
2023-03-25T05:55:52.358Z,100679.81
2023-03-25T05:58:26.244Z,100670.56
2023-03-25T06:00:54.821Z,100668.06
2023-03-25T06:03:26.256Z,100676.75
2023-03-25T06:05:54.665Z,100674.31
2023-03-25T06:08:26.085Z,100675.13
2023-03-25T06:11:00.757Z,100672.44
2023-03-25T06:13:28.553Z,100664.91
2023-03-25T06:15:57.438Z,100664.69
2023-03-25T06:18:33.043Z,100660.09
2023-03-25T06:21:00.906Z,100662.09
2023-03-25T06:23:29.367Z,100665.75
2023-03-25T06:25:58.840Z,100652.13
2023-03-25T06:28:27.352Z,100667.16
2023-03-25T06:30:57.292Z,100650.72
2023-03-25T06:33:48.557Z,100654.41
2023-03-25T06:36:18.914Z,100646.56
2023-03-25T06:38:50.952Z,100648.13
2023-03-25T06:41:21.486Z,100654.25
2023-03-25T06:43:56.651Z,100648.13
2023-03-25T06:46:42.808Z,100646.25
2023-03-25T06:49:30.769Z,100645.06
2023-03-25T06:52:00.134Z,100641.31
2023-03-25T06:54:27.862Z,100636.78
2023-03-25T06:56:55.407Z,100634.72
2023-03-25T06:59:23.587Z,100634.81
2023-03-25T07:01:51.281Z,100624.38
2023-03-25T07:04:19.617Z,100627.63
2023-03-25T07:06:47.350Z,100629.38
2023-03-25T07:09:15.639Z,100619.25
2023-03-25T07:11:43.704Z,100623.41
2023-03-25T07:14:13.297Z,100627.34
2023-03-25T07:16:40.989Z,100623.91
2023-03-25T07:19:10.163Z,100622.69
2023-03-25T07:21:39.255Z,100627.00
2023-03-25T07:24:07.648Z,100624.47
2023-03-25T07:26:35.349Z,100620.88
2023-03-25T07:29:04.125Z,100616.25
2023-03-25T07:31:32.563Z,100624.09
2023-03-25T07:34:00.756Z,100621.34
2023-03-25T07:36:28.291Z,100612.75
2023-03-25T07:38:56.990Z,100617.41
2023-03-25T07:41:28.725Z,100612.69
2023-03-25T07:44:16.507Z,100612.44
2023-03-25T07:46:51.600Z,100600.25
2023-03-25T07:49:19.431Z,100605.19
2023-03-25T07:51:47.152Z,100599.50
2023-03-25T07:54:14.696Z,100598.66
2023-03-25T07:56:42.488Z,100598.75
2023-03-25T07:59:12.442Z,100588.50
2023-03-25T08:01:41.411Z,100595.25
2023-03-25T08:04:09.008Z,100584.75
2023-03-25T08:06:36.903Z,100583.78
2023-03-25T08:09:04.600Z,100575.56
2023-03-25T08:11:34.256Z,100578.88
2023-03-25T08:14:06.259Z,100570.41
2023-03-25T08:16:34.603Z,100575.56
2023-03-25T08:19:02.299Z,100565.13
2023-03-25T08:21:30.562Z,100565.63
2023-03-25T08:24:04.990Z,100562.09
2023-03-25T08:26:36.145Z,100572.94
2023-03-25T08:29:04.103Z,100558.09
2023-03-25T08:31:32.817Z,100561.38
2023-03-25T08:34:06.161Z,100561.69
2023-03-25T08:36:39.543Z,100560.44
2023-03-25T08:39:11.835Z,100558.31
2023-03-25T08:41:40.623Z,100555.34
2023-03-25T08:44:11.262Z,100557.34
2023-03-25T08:46:39.273Z,100555.84
2023-03-25T08:49:08.543Z,100565.41
2023-03-25T08:51:36.332Z,100551.16
2023-03-25T08:54:04.940Z,100558.09
2023-03-25T08:56:32.539Z,100554.03
2023-03-25T08:59:01.601Z,100557.88
2023-03-25T09:01:29.573Z,100564.38
2023-03-25T09:03:57.881Z,100559.28
2023-03-25T09:06:26.224Z,100565.22
2023-03-25T09:08:57.131Z,100576.38
2023-03-25T09:11:36.382Z,100570.97
2023-03-25T09:14:06.534Z,100566.72
2023-03-25T09:16:34.946Z,100566.28
2023-03-25T09:19:04.077Z,100563.94
2023-03-25T09:21:32.401Z,100558.22
2023-03-25T09:24:02.408Z,100553.00
2023-03-25T09:26:29.965Z,100552.59
2023-03-25T09:28:58.128Z,100555.75
2023-03-25T09:31:27.086Z,100559.06
2023-03-25T09:33:54.651Z,100555.97
2023-03-25T09:36:22.401Z,100560.97
2023-03-25T09:38:50.941Z,100561.59
2023-03-25T09:41:44.180Z,100557.97
2023-03-25T09:44:36.244Z,100549.13
2023-03-25T09:47:08.975Z,100557.53
2023-03-25T09:49:46.712Z,100552.69
2023-03-25T09:52:24.516Z,100552.47
2023-03-25T09:54:56.153Z,100551.81
2023-03-25T09:57:31.903Z,100549.81
2023-03-25T10:00:04.146Z,100548.41
2023-03-25T10:03:16.127Z,100549.03
2023-03-25T10:06:10.863Z,100546.59
2023-03-25T10:08:52.441Z,100548.03
2023-03-25T10:11:46.881Z,100538.81
2023-03-25T10:14:30.024Z,100536.94
2023-03-25T10:17:10.480Z,100532.47
2023-03-25T10:19:57.080Z,100535.09
2023-03-25T10:22:37.668Z,100529.66
2023-03-25T10:25:18.964Z,100523.25
2023-03-25T10:27:53.030Z,100528.97
2023-03-25T10:30:26.523Z,100521.19
2023-03-25T10:33:01.676Z,100522.88
2023-03-25T10:35:40.491Z,100526.09
2023-03-25T10:38:24.349Z,100520.69
2023-03-25T10:40:58.005Z,100521.53
2023-03-25T10:43:34.388Z,100524.97
2023-03-25T10:46:24.687Z,100513.56
2023-03-25T10:48:58.587Z,100504.53
2023-03-25T10:51:30.001Z,100511.78
2023-03-25T10:54:05.257Z,100496.69
2023-03-25T10:56:42.886Z,100491.66
2023-03-25T10:59:24.111Z,100488.91
2023-03-25T11:01:53.437Z,100475.94
2023-03-25T11:04:31.278Z,100482.53
2023-03-25T11:06:59.579Z,100476.44
2023-03-25T11:09:31.123Z,100466.81
2023-03-25T11:12:06.523Z,100471.53
2023-03-25T11:14:40.190Z,100459.50
2023-03-25T11:17:15.374Z,100461.72
2023-03-25T11:19:52.793Z,100454.31
2023-03-25T11:22:26.595Z,100443.75
2023-03-25T11:25:16.665Z,100455.47
2023-03-25T11:28:13.187Z,100443.06
2023-03-25T11:31:10.127Z,100442.28
2023-03-25T11:33:38.631Z,100440.56
2023-03-25T11:36:22.610Z,100429.41
2023-03-25T11:38:58.982Z,100429.69
2023-03-25T11:41:32.215Z,100413.09
2023-03-25T11:44:01.989Z,100421.06
2023-03-25T11:46:30.943Z,100412.22
2023-03-25T11:49:19.609Z,100414.66
2023-03-25T11:51:47.711Z,100395.09
2023-03-25T11:54:18.588Z,100391.97
2023-03-25T11:56:50.652Z,100390.03
2023-03-25T11:59:37.309Z,100377.91
2023-03-25T12:02:38.722Z,100382.75
2023-03-25T12:05:09.251Z,100379.38
2023-03-25T12:07:50.118Z,100384.66
2023-03-25T12:10:37.637Z,100378.13
2023-03-25T12:13:18.641Z,100377.38
2023-03-25T12:15:56.362Z,100372.19
2023-03-25T12:18:54.194Z,100365.09
2023-03-25T12:21:37.857Z,100365.88
2023-03-25T12:24:14.155Z,100360.41
2023-03-25T12:27:12.875Z,100361.44
2023-03-25T12:29:55.938Z,100359.41
2023-03-25T12:32:41.918Z,100353.13
2023-03-25T12:35:12.169Z,100352.09
2023-03-25T12:37:46.795Z,100356.59
2023-03-25T12:40:55.833Z,100355.97
2023-03-25T12:44:00.914Z,100352.63
2023-03-25T12:46:50.269Z,100356.59
2023-03-25T12:49:40.901Z,100350.31
2023-03-25T12:52:41.375Z,100351.16
2023-03-25T12:55:31.901Z,100345.72
2023-03-25T12:58:24.712Z,100344.59
2023-03-25T13:01:20.116Z,100350.25
2023-03-25T13:04:06.157Z,100352.66
2023-03-25T13:06:54.098Z,100343.97
2023-03-25T13:09:32.813Z,100330.31
2023-03-25T13:12:17.985Z,100331.53
2023-03-25T13:15:00.495Z,100326.72
2023-03-25T13:17:36.351Z,100330.13
2023-03-25T13:20:10.795Z,100329.25
2023-03-25T13:22:47.234Z,100324.63
2023-03-25T13:25:33.703Z,100327.56
2023-03-25T13:28:06.639Z,100321.13
2023-03-25T13:30:39.234Z,100315.69
2023-03-25T13:33:14.066Z,100321.47
2023-03-25T13:35:57.597Z,100313.13
2023-03-25T13:38:35.488Z,100315.41
2023-03-25T13:41:37.182Z,100316.41
2023-03-25T13:44:19.980Z,100317.16
2023-03-25T13:46:53.779Z,100307.72
2023-03-25T13:49:21.438Z,100306.75
2023-03-25T13:51:48.957Z,100300.81
2023-03-25T13:54:23.446Z,100299.69
2023-03-25T13:56:57.452Z,100294.38
2023-03-25T13:59:43.619Z,100297.25
2023-03-25T14:02:35.553Z,100291.97
2023-03-25T14:05:38.620Z,100286.53
2023-03-25T14:08:37.037Z,100289.34
2023-03-25T14:11:27.894Z,100269.97
2023-03-25T14:14:11.489Z,100277.66
2023-03-25T14:16:50.333Z,100269.84
2023-03-25T14:19:24.548Z,100261.38
2023-03-25T14:21:53.189Z,100264.66
2023-03-25T14:24:31.642Z,100276.00
2023-03-25T14:27:34.199Z,100273.13
2023-03-25T14:30:17.433Z,100271.41
2023-03-25T14:32:45.902Z,100266.09
2023-03-25T14:35:31.914Z,100257.03
2023-03-25T14:38:08.634Z,100265.72
2023-03-25T14:40:50.870Z,100265.63
2023-03-25T14:43:37.169Z,100248.19
2023-03-25T14:46:05.270Z,100249.63
2023-03-25T14:48:47.001Z,100248.91
2023-03-25T14:51:26.678Z,100242.56
2023-03-25T14:53:54.206Z,100245.56
2023-03-25T14:56:33.153Z,100244.34
2023-03-25T14:59:13.845Z,100239.41
2023-03-25T15:01:44.354Z,100239.41
2023-03-25T15:04:27.216Z,100238.91
2023-03-25T15:06:55.476Z,100238.53
2023-03-25T15:09:23.449Z,100236.19
2023-03-25T15:11:57.680Z,100239.22
2023-03-25T15:14:37.403Z,100244.44
2023-03-25T15:17:08.991Z,100241.97
2023-03-25T15:20:02.663Z,100237.16
2023-03-25T15:22:31.341Z,100239.75
2023-03-25T15:25:00.162Z,100238.28
2023-03-25T15:27:56.818Z,100241.19
2023-03-25T15:30:36.475Z,100229.84
2023-03-25T15:33:04.656Z,100233.72
2023-03-25T15:35:54.752Z,100237.22
2023-03-25T15:38:43.856Z,100239.59
2023-03-25T15:41:31.903Z,100237.91
2023-03-25T15:44:49.842Z,100241.75
2023-03-25T15:47:43.845Z,100245.38
2023-03-25T15:50:19.224Z,100243.84
2023-03-25T15:52:49.780Z,100238.31
2023-03-25T15:55:29.744Z,100238.25
2023-03-25T15:58:07.052Z,100251.59
2023-03-25T16:00:42.346Z,100243.03
2023-03-25T16:03:21.039Z,100238.97
2023-03-25T16:05:53.367Z,100235.59
2023-03-25T16:08:31.067Z,100245.97
2023-03-25T16:11:19.290Z,100246.09
2023-03-25T16:14:02.868Z,100241.88
2023-03-25T16:16:36.337Z,100246.53
2023-03-25T16:19:08.496Z,100233.94
2023-03-25T16:21:36.544Z,100239.56
2023-03-25T16:24:09.067Z,100231.84
2023-03-25T16:26:41.487Z,100238.19
2023-03-25T16:29:19.008Z,100245.41
2023-03-25T16:32:01.698Z,100241.19
2023-03-25T16:34:37.905Z,100249.34
2023-03-25T16:37:07.106Z,100236.31
2023-03-25T16:39:36.893Z,100238.00
2023-03-25T16:42:10.855Z,100238.72
2023-03-25T16:44:38.880Z,100245.94
2023-03-25T16:47:06.988Z,100243.28
2023-03-25T16:49:40.397Z,100246.25
2023-03-25T16:52:14.389Z,100244.78
2023-03-25T16:54:51.000Z,100249.25
2023-03-25T16:57:27.676Z,100245.84
2023-03-25T16:59:56.233Z,100254.13
2023-03-25T17:02:50.157Z,100252.84
2023-03-25T17:05:19.142Z,100247.97
2023-03-25T17:07:49.030Z,100252.94
2023-03-25T17:10:28.967Z,100256.88
2023-03-25T17:13:08.901Z,100262.56
2023-03-25T17:15:39.152Z,100267.75
2023-03-25T17:18:14.534Z,100276.75
2023-03-25T17:20:49.230Z,100268.97
2023-03-25T17:23:42.022Z,100268.78
2023-03-25T17:26:15.605Z,100267.34
2023-03-25T17:29:00.070Z,100274.19
2023-03-25T17:31:30.812Z,100277.50
2023-03-25T17:34:02.149Z,100275.19
2023-03-25T17:36:31.688Z,100283.50
2023-03-25T17:39:03.921Z,100282.84
2023-03-25T17:41:39.016Z,100291.72
2023-03-25T17:44:07.311Z,100286.06
2023-03-25T17:46:43.861Z,100285.13
2023-03-25T17:49:16.397Z,100289.59
2023-03-25T17:51:44.997Z,100288.16
2023-03-25T17:54:15.159Z,100301.28
2023-03-25T17:56:43.340Z,100290.72
2023-03-25T17:59:19.257Z,100293.44
2023-03-25T18:01:48.014Z,100294.09
2023-03-25T18:04:17.308Z,100296.00
2023-03-25T18:06:44.955Z,100301.28
2023-03-25T18:09:24.180Z,100300.13
2023-03-25T18:11:55.665Z,100300.28
2023-03-25T18:14:25.511Z,100304.63
2023-03-25T18:16:54.750Z,100304.44
2023-03-25T18:19:25.275Z,100306.41
2023-03-25T18:21:53.124Z,100301.22
2023-03-25T18:24:22.662Z,100306.63
2023-03-25T18:26:50.295Z,100301.03
2023-03-25T18:29:21.245Z,100310.16
2023-03-25T18:31:49.408Z,100301.41
2023-03-25T18:34:17.823Z,100299.69
2023-03-25T18:36:45.624Z,100295.28
2023-03-25T18:39:15.929Z,100299.19
2023-03-25T18:41:45.564Z,100297.75
2023-03-25T18:44:13.802Z,100305.03
2023-03-25T18:46:42.093Z,100292.56
2023-03-25T18:49:15.302Z,100301.44
2023-03-25T18:51:43.197Z,100291.03
2023-03-25T18:54:11.531Z,100298.41
2023-03-25T18:56:41.791Z,100292.97
2023-03-25T18:59:15.333Z,100293.13
2023-03-25T19:01:43.890Z,100290.06
2023-03-25T19:04:11.553Z,100290.50
2023-03-25T19:06:46.786Z,100291.25
2023-03-25T19:09:22.731Z,100284.63
2023-03-25T19:11:50.360Z,100288.63
2023-03-25T19:14:17.875Z,100282.78
2023-03-25T19:16:57.100Z,100288.03
2023-03-25T19:19:29.051Z,100285.31
2023-03-25T19:21:58.358Z,100284.53
2023-03-25T19:24:25.760Z,100285.22
2023-03-25T19:26:58.112Z,100286.16
2023-03-25T19:29:26.595Z,100283.25
2023-03-25T19:31:54.209Z,100275.50
2023-03-25T19:34:24.834Z,100284.25
2023-03-25T19:36:53.552Z,100278.13
2023-03-25T19:39:22.904Z,100286.38
2023-03-25T19:41:52.945Z,100281.19
2023-03-25T19:44:21.238Z,100283.47
2023-03-25T19:46:49.259Z,100290.53
2023-03-25T19:49:25.829Z,100285.00
2023-03-25T19:52:00.623Z,100285.44
2023-03-25T19:54:28.088Z,100285.72
2023-03-25T19:56:55.787Z,100279.50
2023-03-25T19:59:26.428Z,100283.84
2023-03-25T20:01:54.567Z,100286.66
2023-03-25T20:04:22.095Z,100285.28
2023-03-25T20:06:55.881Z,100284.25
2023-03-25T20:09:23.466Z,100280.97
2023-03-25T20:11:51.053Z,100279.84
2023-03-25T20:14:19.271Z,100285.63
2023-03-25T20:16:48.024Z,100286.31
2023-03-25T20:19:16.068Z,100281.72
2023-03-25T20:21:45.309Z,100284.44
2023-03-25T20:24:13.049Z,100291.84
2023-03-25T20:26:40.616Z,100288.44
2023-03-25T20:29:08.784Z,100290.22
2023-03-25T20:31:36.647Z,100288.53
2023-03-25T20:34:04.743Z,100286.06
2023-03-25T20:36:32.833Z,100282.47
2023-03-25T20:39:05.119Z,100284.63
2023-03-25T20:41:34.381Z,100284.63
2023-03-25T20:44:02.068Z,100277.28
2023-03-25T20:46:31.421Z,100272.88
2023-03-25T20:48:59.557Z,100270.22
2023-03-25T20:51:32.398Z,100259.88
2023-03-25T20:54:00.622Z,100255.53
2023-03-25T20:56:28.222Z,100256.94
2023-03-25T20:58:56.612Z,100260.00
2023-03-25T21:01:24.285Z,100251.84
2023-03-25T21:03:53.326Z,100249.03
2023-03-25T21:06:26.679Z,100245.31
2023-03-25T21:08:58.232Z,100245.97
2023-03-25T21:11:28.886Z,100244.38
2023-03-25T21:13:57.511Z,100241.88
2023-03-25T21:16:25.088Z,100238.25
2023-03-25T21:18:53.693Z,100240.81
2023-03-25T21:21:22.596Z,100236.47
2023-03-25T21:23:51.922Z,100232.72
2023-03-25T21:26:22.950Z,100238.16
2023-03-25T21:28:50.899Z,100227.44
2023-03-25T21:31:22.016Z,100231.28
2023-03-25T21:33:52.891Z,100233.13
2023-03-25T21:36:24.340Z,100230.69
2023-03-25T21:38:57.316Z,100223.00
2023-03-25T21:41:25.814Z,100228.97
2023-03-25T21:43:53.700Z,100228.72
2023-03-25T21:46:24.431Z,100227.09
2023-03-25T21:48:52.067Z,100220.22
2023-03-25T21:51:21.423Z,100212.03
2023-03-25T21:53:50.324Z,100218.09
2023-03-25T21:56:20.297Z,100229.66
2023-03-25T21:58:48.901Z,100218.25
2023-03-25T22:01:28.795Z,100223.50
2023-03-25T22:03:58.401Z,100222.44
2023-03-25T22:06:31.693Z,100215.44
2023-03-25T22:09:01.201Z,100216.03
2023-03-25T22:11:29.743Z,100211.78
2023-03-25T22:13:57.629Z,100209.06
2023-03-25T22:16:26.081Z,100205.78
2023-03-25T22:18:53.927Z,100214.09
2023-03-25T22:21:29.441Z,100205.41
2023-03-25T22:24:00.357Z,100202.34
2023-03-25T22:26:30.729Z,100206.78
2023-03-25T22:29:01.434Z,100198.72
2023-03-25T22:31:32.728Z,100204.31
2023-03-25T22:34:10.861Z,100199.50
2023-03-25T22:36:42.775Z,100199.09
2023-03-25T22:39:10.586Z,100194.44
2023-03-25T22:41:38.188Z,100200.03
2023-03-25T22:44:06.038Z,100191.97
2023-03-25T22:46:33.996Z,100198.53
2023-03-25T22:49:01.526Z,100190.94
2023-03-25T22:51:29.171Z,100197.78
2023-03-25T22:53:56.692Z,100191.88
2023-03-25T22:56:25.902Z,100189.88
2023-03-25T22:58:54.030Z,100186.28
2023-03-25T23:01:26.656Z,100193.25
2023-03-25T23:03:56.568Z,100190.66
2023-03-25T23:06:26.176Z,100190.53
2023-03-25T23:08:58.179Z,100182.44
2023-03-25T23:11:28.281Z,100177.25
2023-03-25T23:13:58.761Z,100181.50
2023-03-25T23:16:30.557Z,100176.41
2023-03-25T23:18:58.758Z,100183.50
2023-03-25T23:21:30.544Z,100177.47
2023-03-25T23:24:01.669Z,100171.06
2023-03-25T23:26:35.792Z,100171.47
2023-03-25T23:29:08.786Z,100171.53
2023-03-25T23:31:41.412Z,100167.66
2023-03-25T23:34:13.921Z,100176.81
2023-03-25T23:36:43.324Z,100162.97
2023-03-25T23:39:15.565Z,100170.03
2023-03-25T23:41:44.195Z,100161.09
2023-03-25T23:44:13.296Z,100164.06
2023-03-25T23:46:42.007Z,100163.19
2023-03-25T23:49:10.799Z,100164.47
2023-03-25T23:51:41.407Z,100162.44
2023-03-25T23:54:11.587Z,100162.69
2023-03-25T23:56:39.710Z,100161.97
2023-03-25T23:59:10.611Z,100162.91
